Time;durP1;ratioP1;P1;durP2;ratioP2;P2;SDS_P1;SDS_P2;PMS_P1;PMS_P2;Temp;Humidity;BMP_temperature;BMP_pressure;BME280_temperature;BME280_humidity;BME280_pressure;Samples;Min_cycle;Max_cycle;Signal;HPM_P1;HPM_P2
2023/07/20 00:01:45;;;;;;;2.80;2.60;;;24.80;27.30;;;;;;10434535;28;20238;-77
2023/07/20 00:07:06;;;;;;;3.00;2.80;;;24.90;27.40;;;;;;10421361;28;20233;-76
2023/07/20 00:12:10;;;;;;;3.40;2.87;;;24.90;27.20;;;;;;10424607;28;20237;-77
2023/07/20 00:17:14;;;;;;;3.07;2.70;;;25.00;27.20;;;;;;10418247;28;20248;-77
2023/07/20 00:22:18;;;;;;;3.67;3.10;;;25.00;27.40;;;;;;10429190;28;20240;-77
2023/07/20 00:27:21;;;;;;;3.03;2.50;;;25.00;27.10;;;;;;10428903;28;20274;-77
2023/07/20 00:32:26;;;;;;;2.57;2.40;;;25.00;27.30;;;;;;10429444;28;20225;-76
2023/07/20 00:37:29;;;;;;;3.33;2.80;;;25.00;27.50;;;;;;10421537;28;20328;-77
2023/07/20 00:42:32;;;;;;;3.60;2.70;;;25.00;27.50;;;;;;10421079;28;20303;-76
2023/07/20 00:47:37;;;;;;;3.33;2.80;;;25.00;27.50;;;;;;10423121;28;20224;-76
2023/07/20 00:52:41;;;;;;;3.30;3.00;;;25.00;28.00;;;;;;10434942;28;20707;-77
2023/07/20 00:57:44;;;;;;;2.97;2.77;;;25.00;27.70;;;;;;10430552;28;20229;-77
2023/07/20 01:02:49;;;;;;;3.23;2.80;;;25.00;27.70;;;;;;10425285;28;20295;-77
2023/07/20 01:07:59;;;;;;;3.20;2.90;;;25.00;28.10;;;;;;10431901;28;20236;-77
2023/07/20 01:13:04;;;;;;;2.97;2.77;;;24.90;28.60;;;;;;10422639;28;20749;-77
2023/07/20 01:18:09;;;;;;;2.93;2.73;;;24.90;27.90;;;;;;10425643;28;20225;-76
2023/07/20 01:23:39;;;;;;;2.60;2.40;;;24.90;28.40;;;;;;10417339;28;20324;-77
2023/07/20 01:29:21;;;;;;;3.87;2.90;;;24.80;28.60;;;;;;10424119;28;20221;-76
2023/07/20 01:34:27;;;;;;;3.00;2.77;;;24.80;28.60;;;;;;10426896;28;20229;-77
2023/07/20 01:39:31;;;;;;;2.90;2.70;;;24.70;28.50;;;;;;10423997;28;20236;-77
2023/07/20 01:44:34;;;;;;;3.33;2.40;;;24.60;28.50;;;;;;10423230;28;20256;-76
2023/07/20 01:49:38;;;;;;;2.83;2.63;;;24.50;28.40;;;;;;10426547;28;20307;-77
2023/07/20 01:54:42;;;;;;;2.93;2.63;;;24.50;28.60;;;;;;10412400;28;20235;-77
2023/07/20 01:59:45;;;;;;;3.03;2.80;;;24.40;28.30;;;;;;10420661;28;20235;-77
2023/07/20 02:04:50;;;;;;;2.87;2.67;;;24.30;28.20;;;;;;10417235;28;20320;-76
2023/07/20 02:09:53;;;;;;;2.80;2.53;;;24.20;28.30;;;;;;10427939;28;20585;-76
2023/07/20 02:14:56;;;;;;;2.53;2.33;;;24.20;28.20;;;;;;10427855;28;20232;-76
2023/07/20 02:20:01;;;;;;;2.70;2.40;;;24.10;28.10;;;;;;10431172;28;20488;-76
2023/07/20 02:25:05;;;;;;;2.63;2.43;;;24.00;28.30;;;;;;10432090;28;20592;-77
2023/07/20 02:30:10;;;;;;;2.80;2.60;;;23.90;28.00;;;;;;10435933;28;20221;-76
2023/07/20 02:35:14;;;;;;;3.20;2.33;;;23.80;27.90;;;;;;10428603;28;20283;-77
2023/07/20 02:40:18;;;;;;;2.60;2.40;;;23.80;28.00;;;;;;10437016;28;20312;-77
2023/07/20 02:45:21;;;;;;;2.50;2.30;;;23.90;27.90;;;;;;10426087;28;20218;-76
2023/07/20 02:50:26;;;;;;;2.57;2.10;;;23.90;27.90;;;;;;10426121;28;20231;-77
2023/07/20 02:55:29;;;;;;;2.87;2.10;;;23.80;27.90;;;;;;10418443;28;20225;-77
2023/07/20 03:00:32;;;;;;;2.20;2.00;;;23.80;27.90;;;;;;10438273;28;20220;-77
2023/07/20 03:05:39;;;;;;;2.03;1.90;;;23.60;27.80;;;;;;10427221;28;20256;-77
2023/07/20 03:10:42;;;;;;;2.00;1.90;;;23.50;27.70;;;;;;10426086;28;20226;-76
2023/07/20 03:15:45;;;;;;;3.03;2.10;;;23.50;27.70;;;;;;10434433;28;20727;-77
2023/07/20 03:20:50;;;;;;;2.00;1.80;;;23.40;27.60;;;;;;10430234;28;20313;-76
2023/07/20 03:25:55;;;;;;;2.10;1.60;;;23.30;27.60;;;;;;10422228;28;20774;-77
2023/07/20 03:30:58;;;;;;;3.27;1.67;;;23.20;27.70;;;;;;10430530;28;20229;-77
2023/07/20 03:36:03;;;;;;;2.93;1.80;;;23.20;27.90;;;;;;10430546;28;20953;-77
2023/07/20 03:41:07;;;;;;;1.90;1.80;;;23.20;27.70;;;;;;10426090;28;20754;-77
2023/07/20 03:46:10;;;;;;;1.90;1.43;;;23.10;27.40;;;;;;10434797;28;20346;-77
2023/07/20 03:51:15;;;;;;;1.80;1.70;;;23.10;27.40;;;;;;10423995;28;20229;-76
2023/07/20 03:56:18;;;;;;;1.80;1.70;;;23.10;27.40;;;;;;10433047;28;20787;-77
2023/07/20 04:01:22;;;;;;;3.17;1.77;;;23.10;27.40;;;;;;10412483;28;20233;-77
2023/07/20 04:06:27;;;;;;;1.93;1.80;;;23.00;27.40;;;;;;10434542;28;20229;-76
2023/07/20 04:11:30;;;;;;;3.80;2.20;;;22.90;27.30;;;;;;10427677;28;20238;-76
2023/07/20 04:16:33;;;;;;;3.20;1.90;;;22.90;27.30;;;;;;10441258;28;20260;-77
2023/07/20 04:21:41;;;;;;;3.20;1.97;;;22.90;27.30;;;;;;10424623;28;20248;-77
2023/07/20 04:26:44;;;;;;;3.63;2.07;;;22.80;27.40;;;;;;10425642;28;20798;-77
2023/07/20 04:31:47;;;;;;;4.60;2.23;;;22.70;27.20;;;;;;10422492;28;20293;-75
2023/07/20 04:36:53;;;;;;;3.43;2.23;;;22.70;27.60;;;;;;10429170;28;20229;-74
2023/07/20 04:41:56;;;;;;;3.17;2.20;;;22.70;27.30;;;;;;10424897;28;20225;-74
2023/07/20 04:46:59;;;;;;;2.13;1.80;;;22.70;27.10;;;;;;10421922;28;20772;-75
2023/07/20 04:52:05;;;;;;;2.20;2.00;;;22.70;27.50;;;;;;10433772;28;20229;-75
2023/07/20 04:57:13;;;;;;;2.30;1.80;;;22.60;27.40;;;;;;10422138;28;20229;-75
2023/07/20 05:02:16;;;;;;;2.10;1.90;;;22.60;27.70;;;;;;10456527;28;20315;-75
2023/07/20 05:07:21;;;;;;;2.17;1.80;;;22.50;27.50;;;;;;10466959;28;20246;-75
2023/07/20 05:12:24;;;;;;;2.33;1.87;;;22.50;27.70;;;;;;10461593;28;20315;-75
2023/07/20 05:17:27;;;;;;;2.00;1.90;;;22.50;27.70;;;;;;10459506;28;20930;-75
2023/07/20 05:22:32;;;;;;;2.47;1.93;;;22.40;27.80;;;;;;10455265;28;20256;-74
2023/07/20 05:27:35;;;;;;;2.00;1.90;;;22.40;28.10;;;;;;10471454;28;20227;-76
2023/07/20 05:32:39;;;;;;;2.53;1.97;;;22.40;28.10;;;;;;10466304;28;20224;-75
2023/07/20 05:37:43;;;;;;;2.20;2.00;;;22.50;28.20;;;;;;10456488;28;20625;-75
2023/07/20 05:42:47;;;;;;;2.07;1.93;;;22.40;28.10;;;;;;10461702;28;20216;-75
2023/07/20 05:47:51;;;;;;;3.33;1.90;;;22.50;28.20;;;;;;10456927;28;20231;-73
2023/07/20 05:52:55;;;;;;;3.00;1.90;;;22.60;28.10;;;;;;10446475;28;20221;-74
2023/07/20 05:57:58;;;;;;;2.20;2.00;;;22.60;28.10;;;;;;10461684;28;20228;-75
2023/07/20 06:03:02;;;;;;;3.13;2.07;;;22.70;28.20;;;;;;10463127;28;20907;-76
2023/07/20 06:08:07;;;;;;;2.30;1.70;;;22.70;27.90;;;;;;10457196;28;20259;-76
2023/07/20 06:13:10;;;;;;;1.70;1.60;;;22.80;28.10;;;;;;10456639;28;20243;-75
2023/07/20 06:18:15;;;;;;;1.97;1.77;;;22.80;28.10;;;;;;10462452;28;20235;-75
2023/07/20 06:23:20;;;;;;;3.37;2.10;;;22.90;28.00;;;;;;10449310;28;20960;-76
2023/07/20 06:28:24;;;;;;;2.33;2.13;;;22.90;27.80;;;;;;10464833;28;20235;-78
2023/07/20 06:33:27;;;;;;;4.23;2.13;;;22.90;27.80;;;;;;10451054;28;20281;-75
2023/07/20 06:38:32;;;;;;;3.03;2.17;;;22.90;28.10;;;;;;10461966;28;20217;-75
2023/07/20 06:43:36;;;;;;;4.87;2.30;;;23.00;28.10;;;;;;10468784;28;20322;-75
2023/07/20 06:48:42;;;;;;;2.30;2.10;;;23.00;28.30;;;;;;10461686;28;20221;-75
2023/07/20 06:53:49;;;;;;;2.70;2.00;;;23.00;28.10;;;;;;10462739;28;20315;-79
2023/07/20 06:58:53;;;;;;;2.43;2.00;;;23.00;28.60;;;;;;10455492;28;20795;-78
2023/07/20 07:03:56;;;;;;;2.53;2.10;;;23.10;28.10;;;;;;10467026;28;20239;-75
2023/07/20 07:09:01;;;;;;;2.30;2.10;;;23.10;27.90;;;;;;10459921;28;20243;-75
2023/07/20 07:14:05;;;;;;;2.57;2.37;;;23.10;28.20;;;;;;10466788;28;20311;-73
2023/07/20 07:19:10;;;;;;;4.50;2.33;;;23.10;28.10;;;;;;10452861;28;20220;-74
2023/07/20 07:24:14;;;;;;;2.53;2.30;;;23.10;28.30;;;;;;10457535;28;20319;-74
2023/07/20 07:29:22;;;;;;;2.77;2.40;;;23.20;28.50;;;;;;10468572;28;20232;-76
2023/07/20 07:34:26;;;;;;;2.47;1.97;;;23.20;28.20;;;;;;10460382;28;20228;-76
2023/07/20 07:39:30;;;;;;;2.67;1.93;;;23.30;28.30;;;;;;10462822;28;20224;-73
2023/07/20 07:44:37;;;;;;;2.30;2.10;;;23.40;28.40;;;;;;10460251;28;20227;-75
2023/07/20 07:49:42;;;;;;;3.97;1.97;;;23.60;28.10;;;;;;10462899;28;20224;-75
2023/07/20 07:54:50;;;;;;;2.20;2.07;;;23.80;28.10;;;;;;10455923;28;21135;-76
2023/07/20 07:59:53;;;;;;;2.83;2.00;;;23.90;28.10;;;;;;10464659;28;20310;-76
2023/07/20 08:04:57;;;;;;;2.40;2.20;;;23.90;27.90;;;;;;10471426;28;20673;-77
2023/07/20 08:10:01;;;;;;;3.27;2.13;;;24.00;28.10;;;;;;10479560;28;20611;-79
2023/07/20 08:15:07;;;;;;;2.03;1.80;;;24.00;28.00;;;;;;10488404;28;20224;-76
2023/07/20 08:20:13;;;;;;;2.43;1.87;;;24.10;27.70;;;;;;10480815;28;20712;-77
2023/07/20 08:25:18;;;;;;;1.90;1.80;;;24.10;27.50;;;;;;10478778;28;20789;-76
2023/07/20 08:30:23;;;;;;;2.37;1.93;;;24.20;27.30;;;;;;10481149;28;20299;-74
2023/07/20 08:35:26;;;;;;;3.37;2.00;;;24.30;27.80;;;;;;10487219;28;20242;-76
2023/07/20 08:40:32;;;;;;;2.03;1.90;;;24.50;27.70;;;;;;10461661;28;20228;-75
2023/07/20 08:45:37;;;;;;;4.43;2.23;;;24.70;26.90;;;;;;10481201;28;20319;-76
2023/07/20 08:50:41;;;;;;;1.63;1.50;;;24.90;27.10;;;;;;10484081;28;20255;-76
2023/07/20 08:55:46;;;;;;;2.70;2.00;;;25.00;26.50;;;;;;10503823;28;20306;-76
2023/07/20 09:00:52;;;;;;;1.80;1.70;;;25.10;26.10;;;;;;10488220;28;20228;-78
2023/07/20 09:05:56;;;;;;;2.10;1.60;;;25.10;26.30;;;;;;10480430;28;20230;-74
2023/07/20 09:11:00;;;;;;;2.13;1.93;;;25.20;26.50;;;;;;10486982;28;20754;-75
2023/07/20 09:16:04;;;;;;;2.10;1.90;;;25.40;26.30;;;;;;10482063;28;20232;-76
2023/07/20 09:21:08;;;;;;;1.90;1.80;;;25.50;26.70;;;;;;10488608;28;20228;-75
2023/07/20 09:26:13;;;;;;;2.10;1.90;;;25.60;25.40;;;;;;10478335;28;20256;-75
2023/07/20 09:31:18;;;;;;;2.13;1.80;;;25.60;24.90;;;;;;10492836;28;20301;-76
2023/07/20 09:36:22;;;;;;;2.00;1.80;;;25.70;25.30;;;;;;10484646;28;20327;-76
2023/07/20 09:41:46;;;;;;;2.43;2.00;;;25.70;24.90;;;;;;10484439;28;20223;-77
2023/07/20 09:46:51;;;;;;;2.50;2.30;;;25.80;24.40;;;;;;10485741;28;20763;-77
2023/07/20 09:52:00;;;;;;;2.13;1.90;;;25.80;24.40;;;;;;10484473;28;20220;-76
2023/07/20 09:57:07;;;;;;;3.23;1.80;;;26.00;24.40;;;;;;10485989;28;20281;-75
2023/07/20 10:02:22;;;;;;;2.70;1.90;;;26.00;24.10;;;;;;10485692;28;20224;-76
2023/07/20 10:07:28;;;;;;;2.30;2.10;;;26.00;24.00;;;;;;10472107;28;20315;-76
2023/07/20 10:12:34;;;;;;;3.40;2.20;;;26.10;24.20;;;;;;10482473;28;20224;-75
2023/07/20 10:17:41;;;;;;;2.17;2.03;;;26.20;24.30;;;;;;10484233;28;20235;-75
2023/07/20 10:22:45;;;;;;;2.00;1.90;;;26.40;24.30;;;;;;10484615;28;20228;-76
2023/07/20 10:27:50;;;;;;;2.90;1.87;;;26.60;24.60;;;;;;10485074;28;20233;-76
2023/07/20 10:32:54;;;;;;;3.23;1.90;;;26.90;24.30;;;;;;10486190;28;20224;-76
2023/07/20 10:38:02;;;;;;;2.00;1.80;;;27.10;23.90;;;;;;10493889;28;20590;-76
2023/07/20 10:43:08;;;;;;;2.47;2.00;;;27.30;23.00;;;;;;10498357;28;20238;-77
2023/07/20 10:48:16;;;;;;;1.97;1.73;;;27.40;22.90;;;;;;10490530;28;20243;-76
2023/07/20 10:53:20;;;;;;;2.20;2.00;;;27.40;22.80;;;;;;10525156;28;20306;-76
2023/07/20 10:58:28;;;;;;;2.03;1.83;;;27.50;22.90;;;;;;10491587;28;20884;-78
2023/07/20 11:03:35;;;;;;;2.20;2.00;;;27.50;22.90;;;;;;10484623;28;20700;-76
2023/07/20 11:08:42;;;;;;;2.77;1.90;;;27.50;22.10;;;;;;10488606;28;20236;-74
2023/07/20 11:13:57;;;;;;;1.80;1.70;;;27.40;22.50;;;;;;10461300;28;20312;-76
2023/07/20 11:19:00;;;;;;;2.17;1.67;;;27.30;21.60;;;;;;10486237;28;20303;-76
2023/07/20 11:24:05;;;;;;;2.03;1.83;;;27.30;22.60;;;;;;10441921;28;20228;-78
2023/07/20 11:29:10;;;;;;;3.10;1.90;;;27.20;22.30;;;;;;10441423;28;20650;-80
2023/07/20 11:34:32;;;;;;;1.80;1.70;;;27.20;21.80;;;;;;10426688;28;20231;-76
2023/07/20 11:39:35;;;;;;;2.07;1.60;;;27.20;22.20;;;;;;10451123;28;20566;-77
2023/07/20 11:44:40;;;;;;;2.30;1.70;;;27.20;21.90;;;;;;10430138;28;20232;-77
2023/07/20 11:49:45;;;;;;;2.80;1.93;;;27.10;22.10;;;;;;10429169;28;20229;-77
2023/07/20 11:54:49;;;;;;;1.93;1.60;;;27.10;21.80;;;;;;10428615;28;20221;-78
2023/07/20 11:59:59;;;;;;;2.00;1.90;;;27.20;22.10;;;;;;10431932;28;20225;-76
2023/07/20 12:05:04;;;;;;;1.60;1.50;;;27.30;21.30;;;;;;10466089;28;21011;-77
2023/07/20 12:10:08;;;;;;;2.73;1.60;;;27.30;22.10;;;;;;10479674;28;20256;-76
2023/07/20 12:15:17;;;;;;;1.73;1.63;;;27.40;22.20;;;;;;10463785;28;20263;-77
2023/07/20 12:20:28;;;;;;;1.87;1.63;;;27.50;21.10;;;;;;10477998;28;20229;-77
2023/07/20 12:25:42;;;;;;;1.30;1.20;;;27.70;20.70;;;;;;10475976;28;20299;-77
2023/07/20 12:30:56;;;;;;;1.67;1.50;;;27.80;20.60;;;;;;10476676;28;20227;-80
2023/07/20 12:35:59;;;;;;;1.73;1.63;;;27.90;18.90;;;;;;10482415;28;20254;-77
2023/07/20 12:41:03;;;;;;;1.40;1.30;;;27.90;20.00;;;;;;10477436;28;20228;-79
2023/07/20 12:46:08;;;;;;;1.60;1.50;;;28.00;20.10;;;;;;10470621;28;20316;-77
2023/07/20 12:51:12;;;;;;;1.60;1.50;;;28.10;19.60;;;;;;10472155;28;20245;-80
2023/07/20 12:56:15;;;;;;;2.63;1.80;;;28.20;19.70;;;;;;10471439;28;20308;-79
2023/07/20 13:01:24;;;;;;;1.47;1.37;;;28.10;19.30;;;;;;10474025;28;20312;-78
2023/07/20 13:06:27;;;;;;;1.63;1.53;;;28.00;18.60;;;;;;10470827;28;20289;-78
2023/07/20 13:11:39;;;;;;;1.63;1.40;;;28.00;19.00;;;;;;10477306;28;20289;-77
2023/07/20 13:16:46;;;;;;;2.27;1.60;;;27.90;18.60;;;;;;10473761;28;20252;-78
2023/07/20 13:21:49;;;;;;;1.30;1.30;;;27.90;18.50;;;;;;10450434;28;20239;-78
2023/07/20 13:26:52;;;;;;;2.00;1.67;;;27.90;18.90;;;;;;10452166;28;20315;-78
2023/07/20 13:31:58;;;;;;;3.03;1.70;;;27.90;18.80;;;;;;10466522;28;20238;-79
2023/07/20 13:37:02;;;;;;;3.97;1.40;;;27.90;18.00;;;;;;10491559;28;20281;-78
2023/07/20 13:42:06;;;;;;;1.60;1.47;;;27.90;18.50;;;;;;10495862;28;20307;-78
2023/07/20 13:47:12;;;;;;;1.50;1.40;;;28.00;18.70;;;;;;10486842;28;20267;-78
2023/07/20 13:52:18;;;;;;;1.37;1.27;;;28.10;17.60;;;;;;10480934;28;20599;-76
2023/07/20 13:57:24;;;;;;;2.20;1.70;;;28.30;18.10;;;;;;10479590;28;20224;-76
2023/07/20 14:02:31;;;;;;;1.80;1.63;;;28.40;17.60;;;;;;10481533;28;20220;-76
2023/07/20 14:07:37;;;;;;;1.67;1.57;;;28.50;16.90;;;;;;10478599;28;20224;-76
2023/07/20 14:12:40;;;;;;;1.87;1.50;;;28.50;17.30;;;;;;10484673;28;20232;-76
2023/07/20 14:17:45;;;;;;;2.73;1.47;;;28.50;17.40;;;;;;10493392;28;20794;-77
2023/07/20 14:22:48;;;;;;;1.87;1.60;;;28.60;16.50;;;;;;10499687;28;20226;-76
2023/07/20 14:27:53;;;;;;;1.93;1.40;;;28.60;16.60;;;;;;10496203;28;20236;-76
2023/07/20 14:32:58;;;;;;;2.87;1.63;;;28.60;16.90;;;;;;10519229;28;20235;-77
2023/07/20 14:38:01;;;;;;;2.87;1.80;;;28.70;16.40;;;;;;10482014;28;20282;-79
2023/07/20 14:43:05;;;;;;;1.77;1.40;;;28.70;16.60;;;;;;10451064;28;20653;-77
2023/07/20 14:48:09;;;;;;;1.50;1.40;;;28.90;16.40;;;;;;10433014;28;20317;-75
2023/07/20 14:53:13;;;;;;;2.07;1.60;;;28.90;15.80;;;;;;10460826;28;20228;-75
2023/07/20 14:58:21;;;;;;;2.77;1.60;;;28.90;15.80;;;;;;10467890;28;20239;-76
2023/07/20 15:03:26;;;;;;;1.53;1.43;;;28.90;16.00;;;;;;10468730;28;20224;-76
2023/07/20 15:08:29;;;;;;;3.20;1.77;;;29.00;15.80;;;;;;10462952;28;20306;-75
2023/07/20 15:13:32;;;;;;;1.70;1.60;;;29.00;16.00;;;;;;10477521;28;20309;-75
2023/07/20 15:18:37;;;;;;;2.20;1.50;;;29.10;15.90;;;;;;10467588;28;20220;-75
2023/07/20 15:23:50;;;;;;;1.93;1.73;;;29.20;15.70;;;;;;10466852;28;20404;-77
2023/07/20 15:28:53;;;;;;;1.90;1.70;;;29.20;15.70;;;;;;10478282;28;20232;-76
2023/07/20 15:33:58;;;;;;;1.90;1.70;;;29.30;16.20;;;;;;10473931;28;20228;-79
2023/07/20 15:39:01;;;;;;;2.63;1.67;;;29.30;14.90;;;;;;10468132;28;20431;-77
2023/07/20 15:44:04;;;;;;;1.70;1.60;;;29.30;15.40;;;;;;10469443;28;20246;-75
2023/07/20 15:49:09;;;;;;;1.80;1.70;;;29.40;15.90;;;;;;10477021;28;20701;-78
2023/07/20 15:54:12;;;;;;;1.60;1.50;;;29.40;15.10;;;;;;10468322;28;20232;-76
2023/07/20 15:59:17;;;;;;;1.97;1.80;;;29.50;15.60;;;;;;10470875;28;20224;-77
2023/07/20 16:04:22;;;;;;;2.37;1.70;;;29.50;14.50;;;;;;10455757;28;20927;-77
2023/07/20 16:09:25;;;;;;;2.87;1.90;;;29.50;14.50;;;;;;10466319;28;20541;-76
2023/07/20 16:14:28;;;;;;;2.20;2.00;;;29.40;15.00;;;;;;10436410;28;20311;-77
2023/07/20 16:19:53;;;;;;;3.00;1.77;;;29.40;14.80;;;;;;10425853;28;20232;-78
2023/07/20 16:24:56;;;;;;;2.07;1.93;;;29.30;14.60;;;;;;10419951;28;20344;-77
2023/07/20 16:30:00;;;;;;;1.77;1.67;;;29.30;15.20;;;;;;10417804;28;20225;-75
2023/07/20 16:35:06;;;;;;;1.80;1.70;;;29.20;14.70;;;;;;10460483;28;20224;-76
2023/07/20 16:40:15;;;;;;;1.70;1.60;;;29.10;14.40;;;;;;10458108;28;20228;-76
2023/07/20 16:45:21;;;;;;;2.43;1.80;;;29.10;15.00;;;;;;10467800;28;20221;-77
2023/07/20 16:50:25;;;;;;;1.80;1.70;;;29.10;14.90;;;;;;10467094;28;20242;-77
2023/07/20 16:55:29;;;;;;;3.00;1.80;;;29.10;14.60;;;;;;10476477;28;20321;-76
2023/07/20 17:00:32;;;;;;;2.77;1.90;;;29.10;14.90;;;;;;10464819;28;20248;-77
2023/07/20 17:05:36;;;;;;;1.63;1.53;;;29.20;14.80;;;;;;10467871;28;20216;-76
2023/07/20 17:10:40;;;;;;;2.67;1.70;;;29.10;14.50;;;;;;10462752;28;20273;-77
2023/07/20 17:15:47;;;;;;;4.60;1.77;;;29.10;14.70;;;;;;10467438;28;20225;-76
2023/07/20 17:20:52;;;;;;;1.60;1.50;;;29.10;14.30;;;;;;10469663;28;20734;-77
2023/07/20 17:25:55;;;;;;;1.83;1.73;;;29.20;14.70;;;;;;10469670;28;20229;-77
2023/07/20 17:31:01;;;;;;;1.70;1.60;;;29.20;14.80;;;;;;10464034;28;20233;-77
2023/07/20 17:36:09;;;;;;;1.50;1.40;;;29.20;14.50;;;;;;10467792;28;20232;-77
2023/07/20 17:41:16;;;;;;;1.70;1.60;;;29.20;14.60;;;;;;10459720;28;20591;-76
2023/07/20 17:46:19;;;;;;;1.70;1.60;;;29.10;14.50;;;;;;10460567;28;20232;-77
2023/07/20 17:51:28;;;;;;;1.60;1.50;;;29.10;14.60;;;;;;10469236;28;20220;-77
2023/07/20 17:56:34;;;;;;;1.57;1.47;;;29.00;14.40;;;;;;10490660;28;20336;-79
2023/07/20 18:01:38;;;;;;;2.67;1.50;;;29.00;14.70;;;;;;10471691;28;20220;-77
2023/07/20 18:06:42;;;;;;;1.63;1.53;;;29.00;14.70;;;;;;10473210;28;20301;-79
2023/07/20 18:11:45;;;;;;;1.60;1.50;;;29.00;14.70;;;;;;10462226;28;20281;-78
2023/07/20 18:16:49;;;;;;;2.07;1.70;;;29.00;14.90;;;;;;10473165;28;20281;-78
2023/07/20 18:21:53;;;;;;;1.73;1.40;;;28.90;14.60;;;;;;10467266;28;20225;-78
2023/07/20 18:26:56;;;;;;;1.70;1.60;;;28.90;14.50;;;;;;10477256;28;20233;-78
2023/07/20 18:32:00;;;;;;;2.20;1.50;;;28.90;15.10;;;;;;10474269;28;20288;-77
2023/07/20 18:37:05;;;;;;;1.80;1.70;;;28.80;15.30;;;;;;10476499;28;20233;-76
2023/07/20 18:42:09;;;;;;;1.47;1.37;;;28.70;15.60;;;;;;10467322;28;20263;-76
2023/07/20 18:47:12;;;;;;;2.50;1.70;;;28.60;15.90;;;;;;10470429;28;20583;-76
2023/07/20 18:52:17;;;;;;;9.80;2.17;;;28.50;16.00;;;;;;10496554;28;20236;-76
2023/07/20 18:57:20;;;;;;;10.13;2.53;;;28.40;16.20;;;;;;10509572;28;20230;-76
2023/07/20 19:02:27;;;;;;;16.67;2.50;;;28.30;16.40;;;;;;10487605;28;20227;-76
2023/07/20 19:07:32;;;;;;;8.53;2.00;;;28.20;16.50;;;;;;10483480;28;20900;-78
2023/07/20 19:12:39;;;;;;;5.60;2.10;;;28.10;16.80;;;;;;10497327;28;20251;-78
2023/07/20 19:17:52;;;;;;;6.47;2.17;;;28.00;17.30;;;;;;10487974;28;20615;-77
2023/07/20 19:22:59;;;;;;;6.77;2.00;;;27.80;17.40;;;;;;10516933;28;20227;-78
2023/07/20 19:28:04;;;;;;;5.13;2.40;;;27.70;17.50;;;;;;10486724;28;21694;-78
2023/07/20 19:33:08;;;;;;;7.13;3.00;;;27.60;17.50;;;;;;10495063;28;20835;-78
2023/07/20 19:38:13;;;;;;;2.60;1.90;;;27.50;17.70;;;;;;10496063;28;20228;-79
2023/07/20 19:43:26;;;;;;;1.40;1.30;;;27.40;18.00;;;;;;10495842;28;20232;-78
2023/07/20 19:48:29;;;;;;;3.80;1.97;;;27.20;18.30;;;;;;10498739;28;20232;-78
2023/07/20 19:53:34;;;;;;;5.37;2.00;;;27.10;17.80;;;;;;10489594;28;20255;-84
2023/07/20 19:58:38;;;;;;;2.23;1.90;;;26.90;18.00;;;;;;10489276;28;20267;-79
2023/07/20 20:03:41;;;;;;;2.50;1.63;;;26.60;18.20;;;;;;10498881;28;20240;-83
2023/07/20 20:08:46;;;;;;;2.77;2.00;;;26.40;18.80;;;;;;10493864;28;20255;-80
2023/07/20 20:13:51;;;;;;;1.60;1.40;;;26.30;19.20;;;;;;10505639;28;20240;-81
2023/07/20 20:18:55;;;;;;;2.37;1.83;;;26.20;19.10;;;;;;10496124;28;20256;-80
2023/07/20 20:24:01;;;;;;;2.10;1.90;;;26.00;19.00;;;;;;10494016;28;20232;-80
2023/07/20 20:29:04;;;;;;;1.97;1.87;;;25.90;19.10;;;;;;10493287;28;20224;-82
2023/07/20 20:34:08;;;;;;;2.20;1.80;;;25.80;18.90;;;;;;10489325;28;20220;-81
2023/07/20 20:39:13;;;;;;;2.73;2.53;;;25.60;18.80;;;;;;10493195;28;20251;-80
2023/07/20 20:44:21;;;;;;;2.23;1.87;;;25.40;19.60;;;;;;10492228;28;20251;-80
2023/07/20 20:49:24;;;;;;;2.17;1.70;;;25.20;19.80;;;;;;10498714;28;20231;-80
2023/07/20 20:54:29;;;;;;;1.80;1.70;;;24.80;19.60;;;;;;10490675;28;20259;-79
2023/07/20 20:59:32;;;;;;;2.93;2.00;;;24.60;20.40;;;;;;10490702;28;20560;-80
2023/07/20 21:04:36;;;;;;;3.93;2.30;;;24.50;20.40;;;;;;10485985;28;20258;-79
2023/07/20 21:09:41;;;;;;;3.83;1.80;;;24.40;20.50;;;;;;10487123;28;20248;-83
2023/07/20 21:14:44;;;;;;;2.30;2.00;;;24.30;20.90;;;;;;10493210;28;20241;-82
2023/07/20 21:19:47;;;;;;;2.03;1.90;;;24.20;20.90;;;;;;10491227;28;20231;-81
2023/07/20 21:24:52;;;;;;;1.93;1.70;;;24.10;21.10;;;;;;10483918;28;20236;-82
2023/07/20 21:29:55;;;;;;;3.37;2.70;;;23.80;21.60;;;;;;10494873;28;20224;-80
2023/07/20 21:34:59;;;;;;;2.33;2.13;;;23.60;21.40;;;;;;10491369;28;20256;-80
2023/07/20 21:40:06;;;;;;;2.37;2.00;;;23.50;21.40;;;;;;10491808;28;20224;-81
2023/07/20 21:45:10;;;;;;;2.03;1.83;;;23.30;22.20;;;;;;10486410;28;20224;-83
2023/07/20 21:50:13;;;;;;;4.00;2.30;;;23.10;22.00;;;;;;10479342;28;20810;-81
2023/07/20 21:55:20;;;;;;;4.23;2.10;;;22.80;22.10;;;;;;10473758;28;20271;-83
2023/07/20 22:00:24;;;;;;;3.13;2.17;;;22.70;22.80;;;;;;10472931;28;20240;-81
2023/07/20 22:05:27;;;;;;;3.03;2.03;;;22.60;22.70;;;;;;10484151;28;20229;-80
2023/07/20 22:10:33;;;;;;;2.80;1.90;;;22.60;23.00;;;;;;10490244;28;20223;-82
2023/07/20 22:15:36;;;;;;;2.93;2.00;;;22.50;23.50;;;;;;10497146;28;20239;-80
2023/07/20 22:20:40;;;;;;;2.30;2.10;;;22.40;23.00;;;;;;10490921;28;20224;-80
2023/07/20 22:25:44;;;;;;;6.80;2.83;;;22.10;23.10;;;;;;10489831;28;20601;-81
2023/07/20 22:30:51;;;;;;;3.97;2.20;;;22.00;24.00;;;;;;10494942;28;20244;-80
2023/07/20 22:35:54;;;;;;;6.07;1.90;;;21.80;23.60;;;;;;10496325;28;20812;-82
2023/07/20 22:40:59;;;;;;;3.67;2.47;;;21.70;24.10;;;;;;10504364;28;20915;-80
2023/07/20 22:46:02;;;;;;;3.07;2.40;;;21.70;24.70;;;;;;10456059;28;20241;-81
2023/07/20 22:51:06;;;;;;;4.90;2.47;;;21.70;24.40;;;;;;10451042;28;20437;-81
2023/07/20 22:56:11;;;;;;;4.10;2.20;;;21.70;24.60;;;;;;10454723;28;20633;-82
2023/07/20 23:01:14;;;;;;;5.40;2.63;;;21.70;24.90;;;;;;10444846;28;20316;-79
2023/07/20 23:06:18;;;;;;;4.83;2.30;;;21.70;24.90;;;;;;10457679;28;20249;-80
2023/07/20 23:11:23;;;;;;;5.93;2.50;;;21.70;24.80;;;;;;10460193;28;20738;-81
2023/07/20 23:16:26;;;;;;;3.27;2.37;;;21.80;25.50;;;;;;10458186;28;20260;-80
2023/07/20 23:21:30;;;;;;;3.40;2.40;;;21.70;25.00;;;;;;10451332;28;20225;-81
2023/07/20 23:26:35;;;;;;;2.40;2.20;;;21.60;25.10;;;;;;10454881;28;20320;-79
2023/07/20 23:31:38;;;;;;;2.10;1.90;;;21.60;25.50;;;;;;10455473;28;20233;-82
2023/07/20 23:36:42;;;;;;;2.27;2.00;;;21.70;25.20;;;;;;10455442;28;20238;-79
2023/07/20 23:41:46;;;;;;;2.27;2.07;;;21.70;25.40;;;;;;10460354;28;20275;-81
2023/07/20 23:46:50;;;;;;;3.27;2.50;;;21.80;25.90;;;;;;10453874;28;20241;-81
2023/07/20 23:51:53;;;;;;;4.43;2.30;;;21.90;25.70;;;;;;10450839;28;20232;-81
2023/07/20 23:56:58;;;;;;;2.70;1.90;;;21.80;25.60;;;;;;10455626;28;20225;-80
